Time;durP1;ratioP1;P1;durP2;ratioP2;P2;SDS_P1;SDS_P2;PMS_P1;PMS_P2;Temp;Humidity;BMP_temperature;BMP_pressure;BME280_temperature;BME280_humidity;BME280_pressure;Samples;Min_cycle;Max_cycle;Signal;HPM_P1;HPM_P2
2022/08/21 00:02:14;;;;;;;;;;;16.90;99.90;;;;;;4968349;28;19968;-76
2022/08/21 00:04:42;;;;;;;;;;;16.90;99.90;;;;;;4965901;28;20944;-75
2022/08/21 00:07:09;;;;;;;;;;;16.90;99.90;;;;;;4965738;28;19960;-75
2022/08/21 00:09:36;;;;;;;;;;;16.90;99.90;;;;;;4966863;28;19991;-75
2022/08/21 00:12:03;;;;;;;;;;;16.90;99.90;;;;;;4967719;28;19930;-75
2022/08/21 00:14:30;;;;;;;;;;;16.90;99.90;;;;;;4968923;28;19933;-75
2022/08/21 00:16:56;;;;;;;;;;;16.90;99.90;;;;;;4950022;28;19930;-75
2022/08/21 00:19:24;;;;;;;;;;;16.90;99.90;;;;;;4968451;28;19929;-75
2022/08/21 00:21:53;;;;;;;;;;;16.90;99.90;;;;;;4966158;28;19937;-76
2022/08/21 00:24:20;;;;;;;;;;;17.00;99.90;;;;;;4967238;28;19934;-75
2022/08/21 00:26:47;;;;;;;;;;;17.00;99.90;;;;;;4968639;28;20441;-76
2022/08/21 00:29:14;;;;;;;;;;;17.00;99.90;;;;;;4970183;28;20417;-75
2022/08/21 00:31:41;;;;;;;;;;;17.00;99.90;;;;;;4974140;28;19926;-75
2022/08/21 00:34:07;;;;;;;;;;;17.00;99.90;;;;;;4970534;28;19930;-76
2022/08/21 00:36:34;;;;;;;;;;;17.00;99.90;;;;;;4964587;28;19937;-76
2022/08/21 00:39:03;;;;;;;;;;;17.00;99.90;;;;;;4968504;28;19930;-75
2022/08/21 00:41:31;;;;;;;;;;;17.00;99.90;;;;;;4965293;28;19929;-76
2022/08/21 00:43:57;;;;;;;;;;;16.90;99.90;;;;;;4967575;28;19930;-76
2022/08/21 00:46:24;;;;;;;;;;;16.70;99.90;;;;;;4965390;28;19925;-76
2022/08/21 00:48:51;;;;;;;;;;;16.60;99.90;;;;;;4966644;28;19929;-76
2022/08/21 00:51:22;;;;;;;;;;;16.50;99.90;;;;;;4966816;28;19938;-75
2022/08/21 00:53:49;;;;;;;;;;;16.40;99.90;;;;;;4965107;28;19940;-75
2022/08/21 00:56:17;;;;;;;;;;;16.30;99.90;;;;;;4966340;28;19980;-76
2022/08/21 00:58:44;;;;;;;;;;;16.20;99.90;;;;;;4966268;28;19957;-76
2022/08/21 01:01:11;;;;;;;;;;;16.20;99.90;;;;;;4967010;28;19930;-76
2022/08/21 01:03:38;;;;;;;;;;;16.10;99.90;;;;;;4967311;28;20692;-76
2022/08/21 01:06:06;;;;;;;;;;;16.00;99.90;;;;;;4967208;28;19934;-76
2022/08/21 01:08:34;;;;;;;;;;;15.90;99.90;;;;;;4967834;28;19926;-75
2022/08/21 01:11:01;;;;;;;;;;;15.80;99.90;;;;;;4965390;28;19940;-76
2022/08/21 01:13:30;;;;;;;;;;;15.70;99.90;;;;;;4964981;28;19936;-76
2022/08/21 01:15:59;;;;;;;;;;;15.60;99.90;;;;;;4960913;28;19929;-75
2022/08/21 01:18:25;;;;;;;;;;;15.60;99.90;;;;;;4966845;28;20009;-76
2022/08/21 01:21:00;;;;;;;;;;;15.50;99.90;;;;;;4951846;28;20420;-75
2022/08/21 01:23:27;;;;;;;;;;;15.40;99.90;;;;;;4966088;28;19941;-76
2022/08/21 01:25:54;;;;;;;;;;;15.30;99.90;;;;;;4949315;28;19930;-76
2022/08/21 01:28:22;;;;;;;;;;;15.30;99.90;;;;;;4967311;28;19934;-75
2022/08/21 01:30:51;;;;;;;;;;;15.20;99.90;;;;;;4965523;28;19995;-76
2022/08/21 01:33:18;;;;;;;;;;;15.20;99.90;;;;;;4965109;28;19961;-75
2022/08/21 01:35:45;;;;;;;;;;;15.10;99.90;;;;;;4966197;28;20292;-75
2022/08/21 01:38:13;;;;;;;;;;;14.60;99.90;;;;;;4968688;28;20536;-75
2022/08/21 01:40:40;;;;;;;;;;;15.00;99.90;;;;;;4966979;28;19930;-75
2022/08/21 01:43:06;;;;;;;;;;;15.00;99.90;;;;;;4963212;28;19930;-76
2022/08/21 01:45:33;;;;;;;;;;;15.00;99.90;;;;;;4966615;28;20395;-76
2022/08/21 01:48:00;;;;;;;;;;;14.90;99.90;;;;;;4963644;28;19934;-76
2022/08/21 01:50:27;;;;;;;;;;;14.90;99.90;;;;;;4964059;28;19976;-76
2022/08/21 01:52:53;;;;;;;;;;;14.90;99.90;;;;;;4964570;28;20318;-76
2022/08/21 01:55:22;;;;;;;;;;;14.90;99.90;;;;;;4965266;28;20411;-76
2022/08/21 01:57:49;;;;;;;;;;;14.80;99.90;;;;;;4961724;28;20288;-76
2022/08/21 02:00:18;;;;;;;;;;;14.80;99.90;;;;;;4962046;28;19931;-76
2022/08/21 02:02:45;;;;;;;;;;;14.80;99.90;;;;;;4960726;28;20007;-76
2022/08/21 02:05:12;;;;;;;;;;;14.80;99.90;;;;;;4962177;28;19957;-76
2022/08/21 02:07:39;;;;;;;;;;;14.80;99.90;;;;;;4960678;28;19930;-76
2022/08/21 02:10:07;;;;;;;;;;;14.80;99.90;;;;;;4961058;28;19930;-76
2022/08/21 02:12:35;;;;;;;;;;;14.70;99.90;;;;;;4985254;23;20842;-79
2022/08/21 02:15:03;;;;;;;;;;;14.70;99.90;;;;;;5026533;28;19933;-79
2022/08/21 02:17:37;;;;;;;;;;;14.70;99.90;;;;;;5036909;28;19940;-79
2022/08/21 02:20:04;;;;;;;;;;;14.80;99.90;;;;;;5040105;28;19936;-79
2022/08/21 02:22:31;;;;;;;;;;;14.80;99.90;;;;;;5030839;28;19929;-78
2022/08/21 02:24:57;;;;;;;;;;;14.90;99.90;;;;;;5025657;28;19935;-78
2022/08/21 02:27:24;;;;;;;;;;;14.90;99.90;;;;;;5025498;28;19925;-78
2022/08/21 02:29:52;;;;;;;;;;;15.00;99.90;;;;;;5025979;28;20012;-78
2022/08/21 02:32:21;;;;;;;;;;;15.10;99.90;;;;;;5022473;28;20366;-78
2022/08/21 02:34:48;;;;;;;;;;;15.10;99.90;;;;;;5026281;28;20099;-77
2022/08/21 02:37:15;;;;;;;;;;;15.10;99.90;;;;;;5024852;28;20069;-78
2022/08/21 02:39:42;;;;;;;;;;;15.10;99.90;;;;;;5019815;28;19929;-78
2022/08/21 02:42:08;;;;;;;;;;;15.10;99.90;;;;;;5007841;28;19958;-78
2022/08/21 02:44:35;;;;;;;;;;;15.10;99.90;;;;;;4999224;28;20881;-78
2022/08/21 02:47:03;;;;;;;;;;;16.20;99.90;;;;;;5021356;28;19929;-77
2022/08/21 02:49:30;;;;;;;;;;;16.60;99.90;;;;;;5019973;28;20458;-78
2022/08/21 02:51:57;;;;;;;;;;;14.80;99.90;;;;;;5000622;28;19929;-78
2022/08/21 02:54:24;;;;;;;;;;;14.80;99.90;;;;;;5018997;28;19979;-78
2022/08/21 02:56:51;;;;;;;;;;;14.80;99.90;;;;;;5022332;28;20294;-77
2022/08/21 02:59:17;;;;;;;;;;;14.70;99.90;;;;;;5022651;28;20890;-78
2022/08/21 03:01:44;;;;;;;;;;;14.60;99.90;;;;;;5018297;28;19929;-78
2022/08/21 03:04:12;;;;;;;;;;;14.60;99.90;;;;;;5028083;28;20052;-78
2022/08/21 03:06:39;;;;;;;;;;;14.50;99.90;;;;;;5027280;28;20070;-78
2022/08/21 03:09:06;;;;;;;;;;;14.50;99.90;;;;;;5030580;28;20355;-77
2022/08/21 03:11:32;;;;;;;;;;;14.50;99.90;;;;;;5034048;28;19929;-79
2022/08/21 03:13:59;;;;;;;;;;;14.40;99.90;;;;;;5036286;28;20240;-78
2022/08/21 03:16:26;;;;;;;;;;;14.40;99.90;;;;;;5019369;28;19936;-78
2022/08/21 03:18:53;;;;;;;;;;;14.40;99.90;;;;;;5033152;28;19936;-78
2022/08/21 03:21:21;;;;;;;;;;;14.30;99.90;;;;;;5015965;28;19928;-78
2022/08/21 03:23:47;;;;;;;;;;;14.30;99.90;;;;;;5025200;28;19929;-78
2022/08/21 03:26:14;;;;;;;;;;;14.30;99.90;;;;;;5007456;28;20391;-78
2022/08/21 03:28:41;;;;;;;;;;;14.20;99.90;;;;;;5014632;28;19929;-78
2022/08/21 03:31:08;;;;;;;;;;;14.20;99.90;;;;;;5008876;28;19928;-78
2022/08/21 03:33:35;;;;;;;;;;;14.20;99.90;;;;;;5027510;28;20377;-78
2022/08/21 03:36:03;;;;;;;;;;;14.20;99.90;;;;;;5026934;28;19939;-78
2022/08/21 03:38:32;;;;;;;;;;;14.10;99.90;;;;;;5009939;28;19929;-78
2022/08/21 03:40:59;;;;;;;;;;;14.10;99.90;;;;;;5027790;28;20318;-78
2022/08/21 03:43:26;;;;;;;;;;;14.10;99.90;;;;;;5027626;28;20309;-78
2022/08/21 03:45:53;;;;;;;;;;;14.10;99.90;;;;;;5017758;28;19929;-78
2022/08/21 03:48:20;;;;;;;;;;;14.10;99.90;;;;;;5008740;28;20269;-78
2022/08/21 03:50:49;;;;;;;;;;;14.70;99.90;;;;;;5027706;28;20478;-78
2022/08/21 03:53:16;;;;;;;;;;;14.10;99.90;;;;;;5007417;28;20336;-78
2022/08/21 03:55:44;;;;;;;;;;;14.10;99.90;;;;;;5015023;28;20325;-78
2022/08/21 03:58:11;;;;;;;;;;;14.10;99.90;;;;;;5008939;28;19935;-78
2022/08/21 04:00:38;;;;;;;;;;;14.00;99.90;;;;;;5005645;28;19935;-79
2022/08/21 04:03:06;;;;;;;;;;;14.00;99.90;;;;;;5004409;28;19959;-80
2022/08/21 04:05:33;;;;;;;;;;;14.00;99.90;;;;;;5004384;28;19929;-79
2022/08/21 04:08:00;;;;;;;;;;;14.00;99.90;;;;;;5023603;28;20412;-79
2022/08/21 04:10:28;;;;;;;;;;;14.00;99.90;;;;;;5023029;28;19988;-79
2022/08/21 04:12:56;;;;;;;;;;;14.00;99.90;;;;;;5006785;28;20377;-79
2022/08/21 04:15:23;;;;;;;;;;;14.00;99.90;;;;;;5025762;28;19935;-79
2022/08/21 04:17:50;;;;;;;;;;;14.00;99.90;;;;;;5023794;28;19929;-78
2022/08/21 04:20:17;;;;;;;;;;;14.10;99.90;;;;;;5007927;28;19929;-79
2022/08/21 04:22:44;;;;;;;;;;;14.00;99.90;;;;;;5007659;28;19959;-78
2022/08/21 04:25:11;;;;;;;;;;;13.90;99.90;;;;;;5031688;28;20609;-78
2022/08/21 04:27:39;;;;;;;;;;;14.00;99.90;;;;;;5021317;28;19929;-78
2022/08/21 04:30:09;;;;;;;;;;;14.00;99.90;;;;;;5017224;28;20694;-79
2022/08/21 04:32:36;;;;;;;;;;;14.00;99.90;;;;;;5038634;28;20020;-79
2022/08/21 04:35:04;;;;;;;;;;;15.30;99.90;;;;;;5028143;28;19928;-78
2022/08/21 04:37:31;;;;;;;;;;;14.00;99.90;;;;;;5023154;28;19939;-79
2022/08/21 04:39:58;;;;;;;;;;;14.00;99.90;;;;;;5009741;28;19929;-78
2022/08/21 04:42:25;;;;;;;;;;;14.00;99.90;;;;;;5014734;28;19951;-78
2022/08/21 04:44:53;;;;;;;;;;;14.00;99.90;;;;;;5017040;28;20270;-78
2022/08/21 04:47:21;;;;;;;;;;;14.00;99.90;;;;;;5017885;28;19929;-78
2022/08/21 04:49:48;;;;;;;;;;;14.00;99.90;;;;;;5008885;28;19944;-78
2022/08/21 04:52:17;;;;;;;;;;;14.00;99.90;;;;;;5009386;28;19936;-78
2022/08/21 04:54:45;;;;;;;;;;;14.00;99.90;;;;;;5011087;28;19960;-78
2022/08/21 04:57:12;;;;;;;;;;;14.00;99.90;;;;;;5030717;28;19974;-78
2022/08/21 04:59:40;;;;;;;;;;;14.00;99.90;;;;;;5024621;28;20028;-78
2022/08/21 05:02:08;;;;;;;;;;;14.10;99.90;;;;;;5010459;28;20305;-79
2022/08/21 05:04:38;;;;;;;;;;;15.90;99.90;;;;;;5027543;28;19928;-79
2022/08/21 05:07:08;;;;;;;;;;;14.20;99.90;;;;;;5007622;28;19929;-78
2022/08/21 05:09:35;;;;;;;;;;;14.20;99.90;;;;;;5021684;28;19931;-79
2022/08/21 05:12:02;;;;;;;;;;;14.30;99.90;;;;;;5031280;28;20031;-81
2022/08/21 05:14:29;;;;;;;;;;;14.40;99.90;;;;;;5039954;28;20004;-81
2022/08/21 05:16:55;;;;;;;;;;;14.50;99.90;;;;;;5019334;28;19936;-81
2022/08/21 05:19:23;;;;;;;;;;;14.60;99.90;;;;;;5022745;28;19948;-75
2022/08/21 05:21:51;;;;;;;;;;;14.60;99.90;;;;;;5023040;28;20007;-77
2022/08/21 05:24:18;;;;;;;;;;;14.80;99.90;;;;;;5024849;28;19931;-77
2022/08/21 05:26:45;;;;;;;;;;;14.90;99.90;;;;;;5007305;28;19936;-77
2022/08/21 05:29:12;;;;;;;;;;;15.10;99.90;;;;;;5021738;28;20393;-76
2022/08/21 05:31:39;;;;;;;;;;;15.20;99.90;;;;;;5024166;28;19929;-76
2022/08/21 05:34:05;;;;;;;;;;;15.40;99.90;;;;;;5024914;28;19944;-77
2022/08/21 05:36:32;;;;;;;;;;;15.70;99.90;;;;;;5008732;28;19951;-79
2022/08/21 05:39:01;;;;;;;;;;;15.70;99.90;;;;;;5011441;28;19945;-78
2022/08/21 05:41:28;;;;;;;;;;;16.10;99.90;;;;;;5016675;28;19959;-79
2022/08/21 05:43:54;;;;;;;;;;;17.20;99.90;;;;;;5040618;28;19936;-79
2022/08/21 05:46:21;;;;;;;;;;;17.80;99.90;;;;;;5038494;28;19936;-79
2022/08/21 05:48:48;;;;;;;;;;;18.80;99.90;;;;;;5033041;28;19945;-78
2022/08/21 05:51:15;;;;;;;;;;;20.70;99.90;;;;;;5032858;28;19932;-78
2022/08/21 05:53:42;;;;;;;;;;;20.80;99.90;;;;;;5033470;28;19952;-78
2022/08/21 05:56:11;;;;;;;;;;;22.70;99.90;;;;;;5030262;28;20919;-79
2022/08/21 05:58:38;;;;;;;;;;;22.80;99.90;;;;;;5033267;28;20278;-78
2022/08/21 06:01:05;;;;;;;;;;;23.80;99.90;;;;;;5013940;28;19925;-79
2022/08/21 06:03:33;;;;;;;;;;;24.70;99.90;;;;;;5013071;28;19964;-79
2022/08/21 06:06:00;;;;;;;;;;;25.50;99.90;;;;;;5031437;28;20097;-79
2022/08/21 06:08:27;;;;;;;;;;;26.20;99.90;;;;;;5029870;28;19929;-78
2022/08/21 06:10:55;;;;;;;;;;;27.00;99.90;;;;;;5029249;28;19925;-78
2022/08/21 06:13:24;;;;;;;;;;;27.70;99.90;;;;;;5029248;28;19924;-78
2022/08/21 06:15:51;;;;;;;;;;;28.40;99.90;;;;;;5012487;28;19944;-78
2022/08/21 06:18:18;;;;;;;;;;;29.10;99.90;;;;;;5011245;28;20294;-78
2022/08/21 06:20:44;;;;;;;;;;;29.50;99.90;;;;;;5029140;28;19929;-78
2022/08/21 06:23:12;;;;;;;;;;;30.00;99.90;;;;;;5010466;28;19936;-77
2022/08/21 06:25:38;;;;;;;;;;;30.40;99.90;;;;;;5031115;28;19987;-79
2022/08/21 06:28:06;;;;;;;;;;;30.70;99.90;;;;;;5036687;28;19925;-81
2022/08/21 06:30:34;;;;;;;;;;;31.10;99.90;;;;;;5023489;28;19936;-79
2022/08/21 06:33:01;;;;;;;;;;;31.60;99.90;;;;;;5034912;28;19947;-79
2022/08/21 06:35:28;;;;;;;;;;;31.70;99.90;;;;;;5039840;28;19996;-78
2022/08/21 06:37:55;;;;;;;;;;;31.80;99.90;;;;;;5035708;28;19944;-79
2022/08/21 06:40:22;;;;;;;;;;;32.00;99.90;;;;;;5007175;28;20005;-79
2022/08/21 06:42:49;;;;;;;;;;;32.40;99.90;;;;;;5026731;28;20373;-79
2022/08/21 06:45:16;;;;;;;;;;;32.70;99.90;;;;;;5008752;28;20267;-79
2022/08/21 06:47:45;;;;;;;;;;;32.90;99.90;;;;;;5016467;28;19932;-79
2022/08/21 06:50:12;;;;;;;;;;;33.10;99.90;;;;;;5015529;28;20836;-81
2022/08/21 06:52:39;;;;;;;;;;;33.30;99.90;;;;;;5013823;28;19928;-79
2022/08/21 06:55:07;;;;;;;;;;;33.50;99.90;;;;;;5008572;28;20018;-78
2022/08/21 06:57:34;;;;;;;;;;;33.60;99.80;;;;;;5009025;28;20357;-79
2022/08/21 07:00:00;;;;;;;;;;;33.60;98.50;;;;;;5026520;28;20274;-80
2022/08/21 07:02:27;;;;;;;;;;;33.80;98.10;;;;;;5029318;28;19975;-79
2022/08/21 07:04:56;;;;;;;;;;;34.00;96.90;;;;;;5023924;28;20223;-80
2022/08/21 07:07:23;;;;;;;;;;;34.00;95.70;;;;;;5028124;28;19975;-79
2022/08/21 07:09:50;;;;;;;;;;;34.00;94.70;;;;;;5030647;28;19928;-80
2022/08/21 07:12:16;;;;;;;;;;;34.10;95.50;;;;;;5030390;28;19936;-78
2022/08/21 07:14:44;;;;;;;;;;;34.10;94.00;;;;;;5033192;28;20011;-80
2022/08/21 07:17:10;;;;;;;;;;;34.10;93.20;;;;;;5020017;28;20401;-80
2022/08/21 07:19:37;;;;;;;;;;;34.00;92.60;;;;;;5010541;28;19929;-80
2022/08/21 07:22:06;;;;;;;;;;;34.00;91.40;;;;;;5027082;28;19928;-80
2022/08/21 07:24:33;;;;;;;;;;;34.00;91.00;;;;;;5008600;28;19928;-80
2022/08/21 07:26:59;;;;;;;;;;;34.20;91.10;;;;;;5014827;28;19929;-79
2022/08/21 07:29:26;;;;;;;;;;;34.40;90.60;;;;;;5024969;28;19929;-79
2022/08/21 07:31:53;;;;;;;;;;;34.60;89.40;;;;;;5006956;28;19999;-79
2022/08/21 07:34:20;;;;;;;;;;;34.50;88.50;;;;;;5026639;28;19940;-79
2022/08/21 07:36:46;;;;;;;;;;;34.50;87.40;;;;;;5010613;28;19928;-79
2022/08/21 07:39:14;;;;;;;;;;;34.10;85.70;;;;;;5017568;28;20394;-79
2022/08/21 07:41:41;;;;;;;;;;;33.70;85.90;;;;;;5010633;28;19959;-79
2022/08/21 07:44:08;;;;;;;;;;;33.20;85.60;;;;;;5032385;28;20454;-79
2022/08/21 07:46:35;;;;;;;;;;;32.90;85.20;;;;;;5033495;28;20031;-79
2022/08/21 07:49:01;;;;;;;;;;;32.50;86.10;;;;;;5017072;28;19954;-79
2022/08/21 07:51:29;;;;;;;;;;;32.40;85.90;;;;;;5032512;28;19928;-78
2022/08/21 07:53:57;;;;;;;;;;;32.30;86.40;;;;;;5016855;28;19929;-79
2022/08/21 07:56:25;;;;;;;;;;;32.30;85.30;;;;;;5036858;28;19929;-79
2022/08/21 07:58:52;;;;;;;;;;;32.40;85.10;;;;;;5028699;28;20492;-80
2022/08/21 08:01:19;;;;;;;;;;;32.40;85.30;;;;;;5029336;28;20021;-81
2022/08/21 08:03:45;;;;;;;;;;;32.40;84.60;;;;;;5042634;28;20373;-79
2022/08/21 08:06:13;;;;;;;;;;;32.30;84.20;;;;;;5028340;28;19924;-81
2022/08/21 08:08:41;;;;;;;;;;;32.20;83.80;;;;;;5035571;28;19920;-78
2022/08/21 08:11:10;;;;;;;;;;;32.30;83.10;;;;;;5038299;28;19925;-79
2022/08/21 08:13:40;;;;;;;;;;;32.30;84.40;;;;;;5017395;28;20380;-79
2022/08/21 08:18:41;;;;;;;;;;;32.20;79.90;;;;;;4985023;28;19933;-80
2022/08/21 08:21:08;;;;;;;;;;;32.10;80.90;;;;;;4989859;28;20060;-81
2022/08/21 08:23:35;;;;;;;;;;;32.10;80.30;;;;;;4989800;28;20017;-82
2022/08/21 08:26:03;;;;;;;;;;;32.10;79.30;;;;;;4991688;28;19929;-81
2022/08/21 08:28:31;;;;;;;;;;;32.20;78.50;;;;;;4991809;28;19972;-83
2022/08/21 08:31:00;;;;;;;;;;;32.10;78.50;;;;;;4989438;28;20371;-81
2022/08/21 08:33:27;;;;;;;;;;;32.10;79.80;;;;;;4992446;28;19952;-80
2022/08/21 08:35:54;;;;;;;;;;;32.00;78.40;;;;;;4994247;28;19940;-81
2022/08/21 08:38:21;;;;;;;;;;;32.10;79.00;;;;;;4992686;28;19929;-81
2022/08/21 08:40:52;;;;;;;;;;;32.20;78.80;;;;;;4995731;28;20186;-80
2022/08/21 08:43:19;;;;;;;;;;;32.20;78.30;;;;;;4992423;28;19936;-81
2022/08/21 08:45:48;;;;;;;;;;;32.20;77.80;;;;;;4988935;28;19936;-81
2022/08/21 08:48:24;;;;;;;;;;;32.30;76.80;;;;;;4986280;28;19930;-82
2022/08/21 08:50:54;;;;;;;;;;;32.30;77.40;;;;;;4986909;28;20009;-81
2022/08/21 08:53:24;;;;;;;;;;;32.30;75.80;;;;;;4994302;28;19917;-80
2022/08/21 08:55:52;;;;;;;;;;;32.00;74.60;;;;;;4995057;28;19961;-81
2022/08/21 08:58:20;;;;;;;;;;;31.60;75.80;;;;;;4986291;28;19929;-81
2022/08/21 09:00:49;;;;;;;;;;;31.30;77.50;;;;;;4988959;28;19921;-81
2022/08/21 09:03:18;;;;;;;;;;;31.10;77.10;;;;;;4987931;28;19932;-81
2022/08/21 09:05:46;;;;;;;;;;;29.30;75.80;;;;;;4988637;28;19956;-81
2022/08/21 09:08:18;;;;;;;;;;;30.50;76.90;;;;;;4986788;28;19965;-81
2022/08/21 09:10:49;;;;;;;;;;;30.20;77.60;;;;;;4983799;28;19976;-81
2022/08/21 09:13:19;;;;;;;;;;;30.10;78.20;;;;;;4986797;28;19933;-80
2022/08/21 09:15:50;;;;;;;;;;;30.10;79.40;;;;;;4988640;28;19929;-80
2022/08/21 09:18:28;;;;;;;;;;;30.20;79.00;;;;;;4983737;28;19951;-80
2022/08/21 09:20:58;;;;;;;;;;;30.20;80.00;;;;;;4979764;28;19925;-80
2022/08/21 09:23:29;;;;;;;;;;;30.10;79.50;;;;;;4972673;28;19957;-81
2022/08/21 09:25:59;;;;;;;;;;;30.30;80.00;;;;;;4971679;28;19964;-81
2022/08/21 09:28:26;;;;;;;;;;;30.30;79.00;;;;;;4967774;28;19976;-80
2022/08/21 09:30:55;;;;;;;;;;;30.20;79.40;;;;;;4967661;28;19968;-80
2022/08/21 09:33:23;;;;;;;;;;;29.90;79.40;;;;;;4978210;28;19992;-78
2022/08/21 09:35:51;;;;;;;;;;;29.70;79.70;;;;;;4970055;28;19934;-79
2022/08/21 09:38:25;;;;;;;;;;;29.50;80.00;;;;;;4967135;28;20009;-79
2022/08/21 09:40:57;;;;;;;;;;;29.40;81.20;;;;;;4980804;28;19925;-79
2022/08/21 09:43:25;;;;;;;;;;;29.40;80.20;;;;;;4975234;28;19930;-79
2022/08/21 09:46:02;;;;;;;;;;;29.10;79.80;;;;;;4977617;28;19930;-79
2022/08/21 09:48:30;;;;;;;;;;;28.70;78.90;;;;;;4975997;28;19926;-78
2022/08/21 09:51:06;;;;;;;;;;;28.00;80.10;;;;;;4976008;28;19929;-79
2022/08/21 09:53:34;;;;;;;;;;;27.30;81.30;;;;;;4972237;28;19972;-78
2022/08/21 09:58:49;;;;;;;;;;;26.40;83.90;;;;;;4978240;28;19939;-78
2022/08/21 10:01:19;;;;;;;;;;;26.10;85.60;;;;;;4975446;28;19947;-79
2022/08/21 10:03:47;;;;;;;;;;;25.90;85.80;;;;;;4973274;28;19934;-78
2022/08/21 10:06:22;;;;;;;;;;;25.60;86.90;;;;;;4989487;28;19933;-79
2022/08/21 10:08:48;;;;;;;;;;;25.60;87.80;;;;;;4972676;28;19926;-78
2022/08/21 10:11:17;;;;;;;;;;;25.50;88.70;;;;;;4971569;28;19949;-78
2022/08/21 10:13:48;;;;;;;;;;;25.40;89.30;;;;;;4968645;28;19990;-78
2022/08/21 10:16:25;;;;;;;;;;;25.30;88.90;;;;;;4971300;28;20461;-79
2022/08/21 10:18:57;;;;;;;;;;;25.30;89.80;;;;;;4966989;28;20452;-76
2022/08/21 10:21:28;;;;;;;;;;;25.20;90.10;;;;;;4975743;28;19929;-77
2022/08/21 10:23:59;;;;;;;;;;;25.20;90.00;;;;;;4978344;28;19930;-78
2022/08/21 10:26:32;;;;;;;;;;;25.20;89.90;;;;;;4971588;28;20370;-77
2022/08/21 10:29:02;;;;;;;;;;;25.10;90.50;;;;;;4972321;28;19930;-77
2022/08/21 10:31:33;;;;;;;;;;;25.30;90.60;;;;;;4969499;28;20457;-77
2022/08/21 10:34:07;;;;;;;;;;;25.30;90.50;;;;;;4970745;28;19961;-79
2022/08/21 10:36:38;;;;;;;;;;;25.40;90.40;;;;;;4966386;28;19931;-78
2022/08/21 10:39:12;;;;;;;;;;;25.40;90.90;;;;;;4964591;28;19937;-78
2022/08/21 10:41:47;;;;;;;;;;;25.50;90.80;;;;;;4959695;28;19984;-78
2022/08/21 10:44:24;;;;;;;;;;;25.50;90.70;;;;;;4962798;28;21220;-79
2022/08/21 10:46:55;;;;;;;;;;;25.60;90.40;;;;;;4965481;28;19929;-79
2022/08/21 10:49:27;;;;;;;;;;;25.60;90.50;;;;;;4966607;28;19925;-78
2022/08/21 10:51:58;;;;;;;;;;;25.70;90.60;;;;;;4968434;28;19941;-78
2022/08/21 10:54:32;;;;;;;;;;;25.80;90.90;;;;;;4972628;28;20074;-78
2022/08/21 10:57:02;;;;;;;;;;;25.90;90.80;;;;;;4964943;28;19936;-78
2022/08/21 10:59:31;;;;;;;;;;;26.00;90.50;;;;;;4967579;28;19945;-78
2022/08/21 11:02:01;;;;;;;;;;;26.00;90.50;;;;;;4972536;28;19938;-78
2022/08/21 11:04:33;;;;;;;;;;;26.00;90.30;;;;;;4970354;28;19941;-79
2022/08/21 11:07:01;;;;;;;;;;;26.10;90.40;;;;;;4963891;28;19945;-77
2022/08/21 11:09:28;;;;;;;;;;;26.20;90.30;;;;;;4962392;28;19956;-77
2022/08/21 11:11:57;;;;;;;;;;;26.30;90.10;;;;;;4962151;28;19929;-78
2022/08/21 11:14:26;;;;;;;;;;;26.40;90.20;;;;;;4952612;28;20006;-78
2022/08/21 11:16:58;;;;;;;;;;;26.70;89.80;;;;;;4962727;28;20000;-78
2022/08/21 11:19:28;;;;;;;;;;;26.80;89.50;;;;;;4970392;28;19977;-77
2022/08/21 11:22:00;;;;;;;;;;;26.90;89.20;;;;;;4968314;28;19930;-76
2022/08/21 11:24:31;;;;;;;;;;;27.10;88.80;;;;;;4970114;28;20037;-78
2022/08/21 11:27:00;;;;;;;;;;;27.20;88.30;;;;;;4990748;28;19934;-76
2022/08/21 11:29:29;;;;;;;;;;;27.30;88.50;;;;;;4986623;28;19930;-76
2022/08/21 11:32:01;;;;;;;;;;;27.50;88.20;;;;;;4981028;28;19937;-76
2022/08/21 11:34:38;;;;;;;;;;;27.70;86.70;;;;;;4967640;28;20004;-76
2022/08/21 11:37:10;;;;;;;;;;;27.80;87.40;;;;;;4969010;28;19926;-76
2022/08/21 11:39:41;;;;;;;;;;;27.90;87.00;;;;;;4967065;28;20754;-76
2022/08/21 11:42:14;;;;;;;;;;;28.10;87.00;;;;;;4966446;28;20409;-76
2022/08/21 11:48:18;;;;;;;;;;;28.50;85.90;;;;;;5011681;28;20081;-77
2022/08/21 11:50:50;;;;;;;;;;;28.60;85.20;;;;;;5016582;28;19925;-76
2022/08/21 11:53:25;;;;;;;;;;;28.70;84.80;;;;;;5006674;28;20312;-77
2022/08/21 11:55:57;;;;;;;;;;;28.70;84.60;;;;;;4983155;28;19929;-77
2022/08/21 11:58:39;;;;;;;;;;;28.80;84.70;;;;;;4993664;28;20298;-77
2022/08/21 12:01:08;;;;;;;;;;;28.80;84.50;;;;;;4987100;28;19925;-76
2022/08/21 12:03:38;;;;;;;;;;;28.70;83.50;;;;;;4978049;28;20007;-75
2022/08/21 12:06:31;;;;;;;;;;;28.70;84.40;;;;;;4996508;28;19955;-78
2022/08/21 12:09:18;;;;;;;;;;;28.70;84.10;;;;;;4994999;28;20035;-76
2022/08/21 12:11:50;;;;;;;;;;;28.80;84.10;;;;;;4997761;28;19956;-77
2022/08/21 12:14:20;;;;;;;;;;;28.90;82.90;;;;;;4975103;28;19937;-76
2022/08/21 12:16:51;;;;;;;;;;;29.00;83.40;;;;;;4978824;28;19929;-79
2022/08/21 12:19:41;;;;;;;;;;;29.00;82.80;;;;;;4977893;28;20028;-77
2022/08/21 12:22:16;;;;;;;;;;;28.80;84.00;;;;;;4990767;28;19925;-78
2022/08/21 12:24:51;;;;;;;;;;;28.90;83.10;;;;;;4982211;28;19983;-78
2022/08/21 12:27:27;;;;;;;;;;;28.90;83.40;;;;;;4997595;28;20028;-77
2022/08/21 12:30:15;;;;;;;;;;;28.90;83.10;;;;;;4996366;28;19932;-77
2022/08/21 12:33:04;;;;;;;;;;;28.60;82.40;;;;;;5001030;28;20042;-78
2022/08/21 12:35:38;;;;;;;;;;;28.60;83.40;;;;;;4979830;28;19928;-77
2022/08/21 12:38:08;;;;;;;;;;;28.40;83.80;;;;;;4999990;28;20031;-81
2022/08/21 12:40:43;;;;;;;;;;;28.30;83.80;;;;;;5006527;28;19929;-81
2022/08/21 12:43:16;;;;;;;;;;;28.00;83.60;;;;;;4994662;28;19925;-81
2022/08/21 12:45:53;;;;;;;;;;;28.00;84.20;;;;;;4995751;28;20726;-82
2022/08/21 12:48:27;;;;;;;;;;;28.10;84.50;;;;;;4998478;28;20012;-82
2022/08/21 12:50:57;;;;;;;;;;;28.20;84.60;;;;;;5001501;28;19934;-82
2022/08/21 12:53:37;;;;;;;;;;;28.10;83.80;;;;;;4986269;28;19940;-82
2022/08/21 12:56:09;;;;;;;;;;;28.00;84.30;;;;;;5002281;28;19944;-82
2022/08/21 12:58:46;;;;;;;;;;;27.80;84.60;;;;;;4994545;28;19925;-82
2022/08/21 13:01:24;;;;;;;;;;;27.70;83.80;;;;;;5004375;28;19944;-82
2022/08/21 13:04:12;;;;;;;;;;;27.50;84.40;;;;;;5000467;28;20361;-82
2022/08/21 13:06:43;;;;;;;;;;;27.40;84.20;;;;;;4987390;28;19921;-82
2022/08/21 13:09:15;;;;;;;;;;;27.40;84.40;;;;;;4991026;28;19929;-82
2022/08/21 13:11:52;;;;;;;;;;;27.30;83.50;;;;;;4967698;28;19932;-82
2022/08/21 13:14:27;;;;;;;;;;;27.30;82.10;;;;;;4993385;28;20130;-82
2022/08/21 13:17:01;;;;;;;;;;;27.40;83.20;;;;;;4993363;28;19922;-81
2022/08/21 13:19:37;;;;;;;;;;;27.50;83.10;;;;;;4982086;28;19972;-81
2022/08/21 13:22:04;;;;;;;;;;;27.70;82.90;;;;;;4967960;28;19972;-81
2022/08/21 13:24:36;;;;;;;;;;;27.70;83.30;;;;;;5001419;28;20019;-81
2022/08/21 13:27:28;;;;;;;;;;;27.80;82.60;;;;;;4982403;28;19976;-80
2022/08/21 13:30:11;;;;;;;;;;;27.90;82.50;;;;;;4990201;28;20312;-82
2022/08/21 13:32:51;;;;;;;;;;;28.30;81.60;;;;;;4989185;28;20389;-81
2022/08/21 13:35:31;;;;;;;;;;;28.40;82.10;;;;;;4983435;28;19945;-81
2022/08/21 13:38:02;;;;;;;;;;;28.50;81.80;;;;;;4982921;28;19937;-81
2022/08/21 13:40:33;;;;;;;;;;;28.60;80.40;;;;;;4982210;28;19980;-82
2022/08/21 13:43:12;;;;;;;;;;;28.50;80.30;;;;;;4989572;28;20628;-82
2022/08/21 13:45:45;;;;;;;;;;;28.50;79.50;;;;;;4991578;28;19964;-81
2022/08/21 13:48:18;;;;;;;;;;;28.40;79.10;;;;;;4985557;28;19932;-82
2022/08/21 13:50:57;;;;;;;;;;;28.50;79.10;;;;;;5000493;28;19960;-81
2022/08/21 13:53:34;;;;;;;;;;;28.70;78.80;;;;;;5008602;28;19933;-82
2022/08/21 13:56:19;;;;;;;;;;;28.90;78.00;;;;;;4981656;28;19922;-82
2022/08/21 13:58:51;;;;;;;;;;;28.80;76.50;;;;;;4981764;28;19921;-81
2022/08/21 14:01:25;;;;;;;;;;;28.60;76.50;;;;;;4998521;28;20420;-81
2022/08/21 14:03:54;;;;;;;;;;;28.50;77.40;;;;;;5002660;28;19951;-82
2022/08/21 14:06:30;;;;;;;;;;;28.40;78.40;;;;;;5001717;28;20368;-81
2022/08/21 14:09:15;;;;;;;;;;;28.40;77.20;;;;;;4985665;28;19989;-81
2022/08/21 14:11:46;;;;;;;;;;;28.30;77.70;;;;;;4986789;28;19926;-81
2022/08/21 14:14:22;;;;;;;;;;;28.30;77.60;;;;;;4993995;28;20052;-81
2022/08/21 14:16:56;;;;;;;;;;;28.30;77.50;;;;;;4987935;28;19948;-81
2022/08/21 14:19:24;;;;;;;;;;;28.30;77.60;;;;;;4980384;28;19926;-82
2022/08/21 14:21:54;;;;;;;;;;;28.60;77.80;;;;;;4986803;28;19929;-82
2022/08/21 14:24:28;;;;;;;;;;;28.60;78.40;;;;;;4982190;28;19925;-82
2022/08/21 14:26:56;;;;;;;;;;;28.90;77.90;;;;;;4991788;28;19957;-82
2022/08/21 14:29:26;;;;;;;;;;;29.20;75.60;;;;;;4998743;28;19932;-83
2022/08/21 14:31:55;;;;;;;;;;;29.90;73.70;;;;;;4983162;28;19925;-83
2022/08/21 14:34:23;;;;;;;;;;;30.00;74.30;;;;;;4982943;28;19950;-83
2022/08/21 14:36:50;;;;;;;;;;;31.40;74.60;;;;;;4975110;28;19925;-82
2022/08/21 14:39:17;;;;;;;;;;;30.60;73.90;;;;;;4990848;28;19925;-83